sensor_id;sensor_type;location;lat;lon;timestamp;P1;durP1;ratioP1;P2;durP2;ratioP2
10605;SDS011;5350;42.698;23.148;2022-12-18T00:00:07;2.70;;;2.50;;
10605;SDS011;5350;42.698;23.148;2022-12-18T00:02:34;3.63;;;3.30;;
10605;SDS011;5350;42.698;23.148;2022-12-18T00:05:01;3.13;;;2.80;;
10605;SDS011;5350;42.698;23.148;2022-12-18T00:07:27;3.57;;;2.73;;
10605;SDS011;5350;42.698;23.148;2022-12-18T00:09:54;3.27;;;2.97;;
10605;SDS011;5350;42.698;23.148;2022-12-18T00:12:21;5.33;;;3.23;;
10605;SDS011;5350;42.698;23.148;2022-12-18T00:14:47;4.43;;;3.23;;
10605;SDS011;5350;42.698;23.148;2022-12-18T00:17:16;4.00;;;3.10;;
10605;SDS011;5350;42.698;23.148;2022-12-18T00:19:42;4.30;;;3.23;;
10605;SDS011;5350;42.698;23.148;2022-12-18T00:22:09;4.33;;;3.43;;
10605;SDS011;5350;42.698;23.148;2022-12-18T00:24:36;3.57;;;3.20;;
10605;SDS011;5350;42.698;23.148;2022-12-18T00:27:02;4.90;;;3.67;;
10605;SDS011;5350;42.698;23.148;2022-12-18T00:29:29;3.87;;;3.20;;
10605;SDS011;5350;42.698;23.148;2022-12-18T00:31:56;3.90;;;3.27;;
10605;SDS011;5350;42.698;23.148;2022-12-18T00:34:24;3.90;;;3.30;;
10605;SDS011;5350;42.698;23.148;2022-12-18T00:36:51;3.80;;;3.47;;
10605;SDS011;5350;42.698;23.148;2022-12-18T00:39:17;3.87;;;3.37;;
10605;SDS011;5350;42.698;23.148;2022-12-18T00:41:44;3.93;;;3.57;;
10605;SDS011;5350;42.698;23.148;2022-12-18T00:44:28;4.57;;;3.70;;
10605;SDS011;5350;42.698;23.148;2022-12-18T00:46:55;3.97;;;3.37;;
10605;SDS011;5350;42.698;23.148;2022-12-18T00:49:23;4.50;;;3.47;;
10605;SDS011;5350;42.698;23.148;2022-12-18T00:51:50;3.87;;;3.40;;
10605;SDS011;5350;42.698;23.148;2022-12-18T00:54:17;5.50;;;3.90;;
10605;SDS011;5350;42.698;23.148;2022-12-18T00:56:44;4.40;;;3.67;;
10605;SDS011;5350;42.698;23.148;2022-12-18T00:59:10;4.23;;;3.33;;
10605;SDS011;5350;42.698;23.148;2022-12-18T01:01:37;4.30;;;3.90;;
10605;SDS011;5350;42.698;23.148;2022-12-18T01:04:04;6.40;;;3.90;;
10605;SDS011;5350;42.698;23.148;2022-12-18T01:06:32;5.30;;;4.00;;
10605;SDS011;5350;42.698;23.148;2022-12-18T01:08:59;4.03;;;3.63;;
10605;SDS011;5350;42.698;23.148;2022-12-18T01:11:25;5.37;;;3.73;;
10605;SDS011;5350;42.698;23.148;2022-12-18T01:13:53;4.33;;;3.33;;
10605;SDS011;5350;42.698;23.148;2022-12-18T01:16:20;3.87;;;3.47;;
10605;SDS011;5350;42.698;23.148;2022-12-18T01:18:50;4.97;;;3.50;;
10605;SDS011;5350;42.698;23.148;2022-12-18T01:21:18;4.03;;;3.30;;
10605;SDS011;5350;42.698;23.148;2022-12-18T01:23:46;5.67;;;3.67;;
10605;SDS011;5350;42.698;23.148;2022-12-18T01:26:17;5.87;;;4.13;;
10605;SDS011;5350;42.698;23.148;2022-12-18T01:28:43;8.67;;;4.40;;
10605;SDS011;5350;42.698;23.148;2022-12-18T01:31:11;5.67;;;3.67;;
10605;SDS011;5350;42.698;23.148;2022-12-18T01:33:39;5.47;;;4.43;;
10605;SDS011;5350;42.698;23.148;2022-12-18T01:36:06;4.60;;;3.30;;
10605;SDS011;5350;42.698;23.148;2022-12-18T01:38:34;5.47;;;3.37;;
10605;SDS011;5350;42.698;23.148;2022-12-18T01:41:02;4.73;;;3.53;;
10605;SDS011;5350;42.698;23.148;2022-12-18T01:43:49;5.63;;;4.00;;
10605;SDS011;5350;42.698;23.148;2022-12-18T01:46:17;4.00;;;3.47;;
10605;SDS011;5350;42.698;23.148;2022-12-18T01:48:47;4.27;;;3.83;;
10605;SDS011;5350;42.698;23.148;2022-12-18T01:51:19;4.50;;;3.80;;
10605;SDS011;5350;42.698;23.148;2022-12-18T01:53:46;5.10;;;4.20;;
10605;SDS011;5350;42.698;23.148;2022-12-18T01:56:16;5.03;;;4.17;;
10605;SDS011;5350;42.698;23.148;2022-12-18T01:58:48;2.53;;;2.23;;
10605;SDS011;5350;42.698;23.148;2022-12-18T02:01:17;4.47;;;3.53;;
10605;SDS011;5350;42.698;23.148;2022-12-18T02:03:44;5.47;;;4.03;;
10605;SDS011;5350;42.698;23.148;2022-12-18T02:06:13;4.80;;;3.80;;
10605;SDS011;5350;42.698;23.148;2022-12-18T02:08:45;5.23;;;4.27;;
10605;SDS011;5350;42.698;23.148;2022-12-18T02:11:23;6.83;;;3.87;;
10605;SDS011;5350;42.698;23.148;2022-12-18T02:14:02;5.97;;;3.77;;
10605;SDS011;5350;42.698;23.148;2022-12-18T02:16:38;3.60;;;3.13;;
10605;SDS011;5350;42.698;23.148;2022-12-18T02:19:15;3.77;;;2.90;;
10605;SDS011;5350;42.698;23.148;2022-12-18T02:22:01;4.07;;;3.10;;
10605;SDS011;5350;42.698;23.148;2022-12-18T02:24:39;3.67;;;3.37;;
10605;SDS011;5350;42.698;23.148;2022-12-18T02:27:16;3.67;;;3.23;;
10605;SDS011;5350;42.698;23.148;2022-12-18T02:29:46;4.77;;;3.37;;
10605;SDS011;5350;42.698;23.148;2022-12-18T02:32:18;4.33;;;2.93;;
10605;SDS011;5350;42.698;23.148;2022-12-18T02:34:49;4.13;;;3.47;;
10605;SDS011;5350;42.698;23.148;2022-12-18T02:37:18;4.20;;;2.87;;
10605;SDS011;5350;42.698;23.148;2022-12-18T02:39:47;7.47;;;4.00;;
10605;SDS011;5350;42.698;23.148;2022-12-18T02:42:18;5.40;;;3.50;;
10605;SDS011;5350;42.698;23.148;2022-12-18T02:44:47;4.13;;;3.57;;
10605;SDS011;5350;42.698;23.148;2022-12-18T02:47:15;4.73;;;3.60;;
10605;SDS011;5350;42.698;23.148;2022-12-18T02:49:48;4.33;;;3.30;;
10605;SDS011;5350;42.698;23.148;2022-12-18T02:52:24;4.53;;;3.73;;
10605;SDS011;5350;42.698;23.148;2022-12-18T02:54:58;4.33;;;3.83;;
10605;SDS011;5350;42.698;23.148;2022-12-18T02:57:36;3.90;;;3.03;;
10605;SDS011;5350;42.698;23.148;2022-12-18T03:00:10;5.53;;;3.67;;
10605;SDS011;5350;42.698;23.148;2022-12-18T03:02:41;4.90;;;3.97;;
10605;SDS011;5350;42.698;23.148;2022-12-18T03:05:14;4.50;;;3.47;;
10605;SDS011;5350;42.698;23.148;2022-12-18T03:07:48;4.50;;;3.87;;
10605;SDS011;5350;42.698;23.148;2022-12-18T03:10:22;4.80;;;3.70;;
10605;SDS011;5350;42.698;23.148;2022-12-18T03:12:56;5.17;;;3.63;;
10605;SDS011;5350;42.698;23.148;2022-12-18T03:15:28;3.77;;;3.13;;
10605;SDS011;5350;42.698;23.148;2022-12-18T03:17:59;5.10;;;3.80;;
10605;SDS011;5350;42.698;23.148;2022-12-18T03:20:30;5.07;;;3.90;;
10605;SDS011;5350;42.698;23.148;2022-12-18T03:23:02;5.23;;;3.90;;
10605;SDS011;5350;42.698;23.148;2022-12-18T03:25:33;5.10;;;4.07;;
10605;SDS011;5350;42.698;23.148;2022-12-18T03:28:03;5.60;;;4.10;;
10605;SDS011;5350;42.698;23.148;2022-12-18T03:30:36;5.07;;;3.87;;
10605;SDS011;5350;42.698;23.148;2022-12-18T03:33:07;4.40;;;3.60;;
10605;SDS011;5350;42.698;23.148;2022-12-18T03:35:38;4.83;;;3.80;;
10605;SDS011;5350;42.698;23.148;2022-12-18T03:38:08;5.93;;;4.47;;
10605;SDS011;5350;42.698;23.148;2022-12-18T03:40:39;4.60;;;3.17;;
10605;SDS011;5350;42.698;23.148;2022-12-18T03:43:14;4.77;;;3.17;;
10605;SDS011;5350;42.698;23.148;2022-12-18T03:45:48;5.53;;;3.63;;
10605;SDS011;5350;42.698;23.148;2022-12-18T03:48:19;4.80;;;3.30;;
10605;SDS011;5350;42.698;23.148;2022-12-18T03:50:53;6.93;;;4.03;;
10605;SDS011;5350;42.698;23.148;2022-12-18T03:53:25;6.37;;;3.97;;
10605;SDS011;5350;42.698;23.148;2022-12-18T03:56:00;4.90;;;3.53;;
10605;SDS011;5350;42.698;23.148;2022-12-18T03:58:31;5.60;;;4.03;;
10605;SDS011;5350;42.698;23.148;2022-12-18T04:01:00;6.63;;;4.10;;
10605;SDS011;5350;42.698;23.148;2022-12-18T04:03:29;6.83;;;5.03;;
10605;SDS011;5350;42.698;23.148;2022-12-18T04:05:59;6.80;;;5.03;;
10605;SDS011;5350;42.698;23.148;2022-12-18T04:08:27;8.27;;;5.03;;
10605;SDS011;5350;42.698;23.148;2022-12-18T04:10:54;7.47;;;5.53;;
10605;SDS011;5350;42.698;23.148;2022-12-18T04:13:22;7.97;;;5.03;;
10605;SDS011;5350;42.698;23.148;2022-12-18T04:15:50;7.97;;;4.93;;
10605;SDS011;5350;42.698;23.148;2022-12-18T04:18:18;7.23;;;5.20;;
10605;SDS011;5350;42.698;23.148;2022-12-18T04:20:44;7.93;;;4.80;;
10605;SDS011;5350;42.698;23.148;2022-12-18T04:23:11;6.77;;;3.70;;
10605;SDS011;5350;42.698;23.148;2022-12-18T04:25:38;6.93;;;4.90;;
10605;SDS011;5350;42.698;23.148;2022-12-18T04:28:05;7.57;;;5.50;;
10605;SDS011;5350;42.698;23.148;2022-12-18T04:30:32;8.20;;;5.37;;
10605;SDS011;5350;42.698;23.148;2022-12-18T04:33:00;7.57;;;5.03;;
10605;SDS011;5350;42.698;23.148;2022-12-18T04:35:26;7.10;;;5.03;;
10605;SDS011;5350;42.698;23.148;2022-12-18T04:37:53;8.53;;;5.60;;
10605;SDS011;5350;42.698;23.148;2022-12-18T04:40:20;7.90;;;5.40;;
10605;SDS011;5350;42.698;23.148;2022-12-18T04:42:46;7.90;;;5.10;;
10605;SDS011;5350;42.698;23.148;2022-12-18T04:45:13;8.50;;;5.83;;
10605;SDS011;5350;42.698;23.148;2022-12-18T04:47:40;8.27;;;5.77;;
10605;SDS011;5350;42.698;23.148;2022-12-18T04:50:08;7.60;;;5.20;;
10605;SDS011;5350;42.698;23.148;2022-12-18T04:52:35;8.10;;;5.60;;
10605;SDS011;5350;42.698;23.148;2022-12-18T04:55:02;6.60;;;5.13;;
10605;SDS011;5350;42.698;23.148;2022-12-18T04:57:29;7.97;;;5.50;;
10605;SDS011;5350;42.698;23.148;2022-12-18T04:59:55;7.10;;;4.87;;
10605;SDS011;5350;42.698;23.148;2022-12-18T05:02:22;8.30;;;5.30;;
10605;SDS011;5350;42.698;23.148;2022-12-18T05:04:49;8.80;;;5.77;;
10605;SDS011;5350;42.698;23.148;2022-12-18T05:07:17;8.03;;;5.17;;
10605;SDS011;5350;42.698;23.148;2022-12-18T05:09:43;7.90;;;5.43;;
10605;SDS011;5350;42.698;23.148;2022-12-18T05:12:10;7.80;;;5.57;;
10605;SDS011;5350;42.698;23.148;2022-12-18T05:14:37;8.57;;;6.13;;
10605;SDS011;5350;42.698;23.148;2022-12-18T05:17:04;9.87;;;6.13;;
10605;SDS011;5350;42.698;23.148;2022-12-18T05:19:30;8.07;;;5.87;;
10605;SDS011;5350;42.698;23.148;2022-12-18T05:21:57;9.53;;;6.97;;
10605;SDS011;5350;42.698;23.148;2022-12-18T05:24:25;9.73;;;6.83;;
10605;SDS011;5350;42.698;23.148;2022-12-18T05:26:52;9.07;;;6.47;;
10605;SDS011;5350;42.698;23.148;2022-12-18T05:29:18;9.67;;;7.17;;
10605;SDS011;5350;42.698;23.148;2022-12-18T05:31:45;11.03;;;6.80;;
10605;SDS011;5350;42.698;23.148;2022-12-18T05:34:12;8.50;;;7.23;;
10605;SDS011;5350;42.698;23.148;2022-12-18T05:36:39;10.37;;;7.50;;
10605;SDS011;5350;42.698;23.148;2022-12-18T05:39:06;10.63;;;7.00;;
10605;SDS011;5350;42.698;23.148;2022-12-18T05:41:34;10.27;;;6.93;;
10605;SDS011;5350;42.698;23.148;2022-12-18T05:44:01;12.33;;;7.63;;
10605;SDS011;5350;42.698;23.148;2022-12-18T05:46:28;10.73;;;7.60;;
10605;SDS011;5350;42.698;23.148;2022-12-18T05:48:55;11.00;;;8.00;;
10605;SDS011;5350;42.698;23.148;2022-12-18T05:51:25;9.07;;;7.40;;
10605;SDS011;5350;42.698;23.148;2022-12-18T05:53:52;11.43;;;7.73;;
10605;SDS011;5350;42.698;23.148;2022-12-18T05:56:19;10.33;;;7.20;;
10605;SDS011;5350;42.698;23.148;2022-12-18T05:58:50;12.60;;;8.80;;
10605;SDS011;5350;42.698;23.148;2022-12-18T06:01:18;10.97;;;7.33;;
10605;SDS011;5350;42.698;23.148;2022-12-18T06:03:47;11.53;;;8.23;;
10605;SDS011;5350;42.698;23.148;2022-12-18T06:06:14;11.70;;;8.07;;
10605;SDS011;5350;42.698;23.148;2022-12-18T06:08:42;13.33;;;8.50;;
10605;SDS011;5350;42.698;23.148;2022-12-18T06:11:10;13.03;;;8.40;;
10605;SDS011;5350;42.698;23.148;2022-12-18T06:13:37;14.37;;;8.37;;
10605;SDS011;5350;42.698;23.148;2022-12-18T06:16:05;13.40;;;8.73;;
10605;SDS011;5350;42.698;23.148;2022-12-18T06:18:33;12.77;;;8.47;;
10605;SDS011;5350;42.698;23.148;2022-12-18T06:20:59;12.90;;;8.40;;
10605;SDS011;5350;42.698;23.148;2022-12-18T06:23:26;12.13;;;8.80;;
10605;SDS011;5350;42.698;23.148;2022-12-18T06:25:53;13.23;;;8.97;;
10605;SDS011;5350;42.698;23.148;2022-12-18T06:28:20;11.53;;;8.53;;
10605;SDS011;5350;42.698;23.148;2022-12-18T06:30:48;13.23;;;8.43;;
10605;SDS011;5350;42.698;23.148;2022-12-18T06:33:16;12.80;;;8.93;;
10605;SDS011;5350;42.698;23.148;2022-12-18T06:35:43;13.63;;;9.27;;
10605;SDS011;5350;42.698;23.148;2022-12-18T06:38:10;14.30;;;9.37;;
10605;SDS011;5350;42.698;23.148;2022-12-18T06:40:37;15.53;;;9.93;;
10605;SDS011;5350;42.698;23.148;2022-12-18T06:43:05;14.47;;;9.63;;
10605;SDS011;5350;42.698;23.148;2022-12-18T06:45:32;14.23;;;9.87;;
10605;SDS011;5350;42.698;23.148;2022-12-18T06:47:59;16.30;;;9.07;;
10605;SDS011;5350;42.698;23.148;2022-12-18T06:50:27;14.30;;;9.97;;
10605;SDS011;5350;42.698;23.148;2022-12-18T06:52:54;13.07;;;8.40;;
10605;SDS011;5350;42.698;23.148;2022-12-18T06:55:21;13.87;;;8.87;;
10605;SDS011;5350;42.698;23.148;2022-12-18T06:57:48;13.30;;;9.37;;
10605;SDS011;5350;42.698;23.148;2022-12-18T07:00:15;12.10;;;8.30;;
10605;SDS011;5350;42.698;23.148;2022-12-18T07:02:42;12.07;;;8.10;;
10605;SDS011;5350;42.698;23.148;2022-12-18T07:05:08;13.30;;;9.10;;
10605;SDS011;5350;42.698;23.148;2022-12-18T07:07:36;13.80;;;9.20;;
10605;SDS011;5350;42.698;23.148;2022-12-18T07:10:04;12.87;;;8.30;;
10605;SDS011;5350;42.698;23.148;2022-12-18T07:12:31;13.43;;;9.40;;
10605;SDS011;5350;42.698;23.148;2022-12-18T07:14:58;12.83;;;8.67;;
10605;SDS011;5350;42.698;23.148;2022-12-18T07:17:24;12.80;;;8.47;;
10605;SDS011;5350;42.698;23.148;2022-12-18T07:19:51;12.50;;;8.83;;
10605;SDS011;5350;42.698;23.148;2022-12-18T07:22:18;11.13;;;8.53;;
10605;SDS011;5350;42.698;23.148;2022-12-18T07:24:46;12.13;;;7.83;;
10605;SDS011;5350;42.698;23.148;2022-12-18T07:27:16;10.37;;;7.90;;
10605;SDS011;5350;42.698;23.148;2022-12-18T07:29:43;13.53;;;8.80;;
10605;SDS011;5350;42.698;23.148;2022-12-18T07:32:10;12.10;;;7.97;;
10605;SDS011;5350;42.698;23.148;2022-12-18T07:34:37;11.03;;;8.13;;
10605;SDS011;5350;42.698;23.148;2022-12-18T07:37:03;14.00;;;8.67;;
10605;SDS011;5350;42.698;23.148;2022-12-18T07:39:30;10.03;;;7.47;;
10605;SDS011;5350;42.698;23.148;2022-12-18T07:41:58;10.90;;;7.83;;
10605;SDS011;5350;42.698;23.148;2022-12-18T07:44:39;11.87;;;8.40;;
10605;SDS011;5350;42.698;23.148;2022-12-18T07:47:06;11.50;;;8.00;;
10605;SDS011;5350;42.698;23.148;2022-12-18T07:49:32;10.10;;;7.73;;
10605;SDS011;5350;42.698;23.148;2022-12-18T07:51:59;11.43;;;8.10;;
10605;SDS011;5350;42.698;23.148;2022-12-18T07:54:26;15.60;;;8.87;;
10605;SDS011;5350;42.698;23.148;2022-12-18T07:56:53;12.00;;;8.83;;
10605;SDS011;5350;42.698;23.148;2022-12-18T07:59:21;13.90;;;8.97;;
10605;SDS011;5350;42.698;23.148;2022-12-18T08:01:48;12.17;;;8.80;;
10605;SDS011;5350;42.698;23.148;2022-12-18T08:04:15;14.67;;;10.13;;
10605;SDS011;5350;42.698;23.148;2022-12-18T08:06:41;12.90;;;9.50;;
10605;SDS011;5350;42.698;23.148;2022-12-18T08:09:09;11.33;;;8.37;;
10605;SDS011;5350;42.698;23.148;2022-12-18T08:11:36;12.97;;;8.87;;
10605;SDS011;5350;42.698;23.148;2022-12-18T08:14:03;12.90;;;9.27;;
10605;SDS011;5350;42.698;23.148;2022-12-18T08:16:31;14.43;;;9.53;;
10605;SDS011;5350;42.698;23.148;2022-12-18T08:18:58;14.63;;;9.90;;
10605;SDS011;5350;42.698;23.148;2022-12-18T08:21:25;14.43;;;9.40;;
10605;SDS011;5350;42.698;23.148;2022-12-18T08:23:53;16.23;;;10.53;;
10605;SDS011;5350;42.698;23.148;2022-12-18T08:26:24;15.43;;;10.37;;
10605;SDS011;5350;42.698;23.148;2022-12-18T08:28:53;12.53;;;9.37;;
10605;SDS011;5350;42.698;23.148;2022-12-18T08:31:20;14.67;;;10.27;;
10605;SDS011;5350;42.698;23.148;2022-12-18T08:33:49;16.27;;;9.33;;
10605;SDS011;5350;42.698;23.148;2022-12-18T08:36:17;15.13;;;9.50;;
10605;SDS011;5350;42.698;23.148;2022-12-18T08:38:44;15.50;;;10.70;;
10605;SDS011;5350;42.698;23.148;2022-12-18T08:41:12;13.83;;;9.57;;
10605;SDS011;5350;42.698;23.148;2022-12-18T08:43:40;15.03;;;9.37;;
10605;SDS011;5350;42.698;23.148;2022-12-18T08:46:26;15.00;;;10.03;;
10605;SDS011;5350;42.698;23.148;2022-12-18T08:48:55;14.00;;;9.80;;
10605;SDS011;5350;42.698;23.148;2022-12-18T08:51:21;14.17;;;9.23;;
10605;SDS011;5350;42.698;23.148;2022-12-18T08:53:48;15.23;;;10.07;;
10605;SDS011;5350;42.698;23.148;2022-12-18T08:56:15;16.53;;;10.53;;
10605;SDS011;5350;42.698;23.148;2022-12-18T08:58:42;15.40;;;10.00;;
10605;SDS011;5350;42.698;23.148;2022-12-18T09:01:10;14.57;;;10.70;;
10605;SDS011;5350;42.698;23.148;2022-12-18T09:03:38;16.27;;;10.40;;
10605;SDS011;5350;42.698;23.148;2022-12-18T09:06:07;14.10;;;9.80;;
10605;SDS011;5350;42.698;23.148;2022-12-18T09:08:34;14.43;;;10.13;;
10605;SDS011;5350;42.698;23.148;2022-12-18T09:11:01;17.17;;;10.47;;
10605;SDS011;5350;42.698;23.148;2022-12-18T09:13:28;14.13;;;9.90;;
10605;SDS011;5350;42.698;23.148;2022-12-18T09:15:55;15.97;;;10.60;;
10605;SDS011;5350;42.698;23.148;2022-12-18T09:18:23;16.37;;;10.83;;
10605;SDS011;5350;42.698;23.148;2022-12-18T09:20:50;16.27;;;11.17;;
10605;SDS011;5350;42.698;23.148;2022-12-18T09:23:19;17.50;;;11.27;;
10605;SDS011;5350;42.698;23.148;2022-12-18T09:25:46;49.23;;;33.30;;
10605;SDS011;5350;42.698;23.148;2022-12-18T09:28:14;15.63;;;11.17;;
10605;SDS011;5350;42.698;23.148;2022-12-18T09:30:43;17.30;;;10.90;;
10605;SDS011;5350;42.698;23.148;2022-12-18T09:33:10;16.87;;;11.33;;
10605;SDS011;5350;42.698;23.148;2022-12-18T09:35:37;15.17;;;11.07;;
10605;SDS011;5350;42.698;23.148;2022-12-18T09:38:06;17.33;;;11.70;;
10605;SDS011;5350;42.698;23.148;2022-12-18T09:40:36;14.57;;;10.67;;
10605;SDS011;5350;42.698;23.148;2022-12-18T09:43:10;16.00;;;10.37;;
10605;SDS011;5350;42.698;23.148;2022-12-18T09:45:44;15.27;;;10.10;;
10605;SDS011;5350;42.698;23.148;2022-12-18T09:50:45;16.67;;;10.80;;
10605;SDS011;5350;42.698;23.148;2022-12-18T09:53:14;15.70;;;10.67;;
10605;SDS011;5350;42.698;23.148;2022-12-18T09:55:47;16.13;;;10.33;;
10605;SDS011;5350;42.698;23.148;2022-12-18T09:58:17;15.33;;;10.53;;
10605;SDS011;5350;42.698;23.148;2022-12-18T10:00:51;14.77;;;10.00;;
10605;SDS011;5350;42.698;23.148;2022-12-18T10:03:18;14.50;;;9.47;;
10605;SDS011;5350;42.698;23.148;2022-12-18T10:05:47;16.67;;;11.37;;
10605;SDS011;5350;42.698;23.148;2022-12-18T10:08:29;13.80;;;9.03;;
10605;SDS011;5350;42.698;23.148;2022-12-18T10:11:16;16.80;;;10.97;;
10605;SDS011;5350;42.698;23.148;2022-12-18T10:13:52;20.80;;;13.10;;
10605;SDS011;5350;42.698;23.148;2022-12-18T10:16:22;20.10;;;12.07;;
10605;SDS011;5350;42.698;23.148;2022-12-18T10:19:01;19.33;;;13.97;;
10605;SDS011;5350;42.698;23.148;2022-12-18T10:21:42;15.57;;;11.27;;
10605;SDS011;5350;42.698;23.148;2022-12-18T10:24:17;15.73;;;10.57;;
10605;SDS011;5350;42.698;23.148;2022-12-18T10:26:52;13.07;;;8.00;;
10605;SDS011;5350;42.698;23.148;2022-12-18T10:29:22;15.63;;;10.03;;
10605;SDS011;5350;42.698;23.148;2022-12-18T10:31:51;13.77;;;9.10;;
10605;SDS011;5350;42.698;23.148;2022-12-18T10:34:17;15.27;;;9.97;;
10605;SDS011;5350;42.698;23.148;2022-12-18T10:36:44;15.90;;;10.17;;
10605;SDS011;5350;42.698;23.148;2022-12-18T10:39:14;15.07;;;9.93;;
10605;SDS011;5350;42.698;23.148;2022-12-18T10:41:43;16.40;;;10.87;;
10605;SDS011;5350;42.698;23.148;2022-12-18T10:44:12;15.03;;;9.23;;
10605;SDS011;5350;42.698;23.148;2022-12-18T10:46:42;10.87;;;6.90;;
10605;SDS011;5350;42.698;23.148;2022-12-18T10:49:18;14.67;;;8.50;;
10605;SDS011;5350;42.698;23.148;2022-12-18T10:51:47;13.83;;;8.13;;
10605;SDS011;5350;42.698;23.148;2022-12-18T10:54:15;10.50;;;5.43;;
10605;SDS011;5350;42.698;23.148;2022-12-18T10:56:44;15.27;;;8.80;;
10605;SDS011;5350;42.698;23.148;2022-12-18T10:59:13;16.63;;;9.10;;
10605;SDS011;5350;42.698;23.148;2022-12-18T11:01:48;16.23;;;10.47;;
10605;SDS011;5350;42.698;23.148;2022-12-18T11:04:18;13.70;;;8.23;;
10605;SDS011;5350;42.698;23.148;2022-12-18T11:06:54;12.20;;;7.70;;
10605;SDS011;5350;42.698;23.148;2022-12-18T11:09:23;8.67;;;5.17;;
10605;SDS011;5350;42.698;23.148;2022-12-18T11:11:52;11.20;;;5.17;;
10605;SDS011;5350;42.698;23.148;2022-12-18T11:14:22;11.67;;;7.00;;
10605;SDS011;5350;42.698;23.148;2022-12-18T11:16:51;11.80;;;6.67;;
10605;SDS011;5350;42.698;23.148;2022-12-18T11:19:25;14.33;;;8.40;;
10605;SDS011;5350;42.698;23.148;2022-12-18T11:21:58;12.30;;;6.50;;
10605;SDS011;5350;42.698;23.148;2022-12-18T11:24:27;13.50;;;8.50;;
10605;SDS011;5350;42.698;23.148;2022-12-18T11:26:57;12.33;;;8.30;;
10605;SDS011;5350;42.698;23.148;2022-12-18T11:29:34;13.63;;;8.63;;
10605;SDS011;5350;42.698;23.148;2022-12-18T11:32:22;12.07;;;8.13;;
10605;SDS011;5350;42.698;23.148;2022-12-18T11:34:56;16.30;;;11.07;;
10605;SDS011;5350;42.698;23.148;2022-12-18T11:37:27;10.23;;;6.87;;
10605;SDS011;5350;42.698;23.148;2022-12-18T11:39:56;16.00;;;10.07;;
10605;SDS011;5350;42.698;23.148;2022-12-18T11:42:27;11.93;;;8.17;;
10605;SDS011;5350;42.698;23.148;2022-12-18T11:45:07;12.77;;;9.27;;
10605;SDS011;5350;42.698;23.148;2022-12-18T11:47:52;12.10;;;7.40;;
10605;SDS011;5350;42.698;23.148;2022-12-18T11:50:24;13.03;;;7.03;;
10605;SDS011;5350;42.698;23.148;2022-12-18T11:52:54;15.23;;;8.53;;
10605;SDS011;5350;42.698;23.148;2022-12-18T11:55:24;13.20;;;7.80;;
10605;SDS011;5350;42.698;23.148;2022-12-18T11:57:58;11.00;;;6.07;;
10605;SDS011;5350;42.698;23.148;2022-12-18T12:00:33;13.70;;;9.10;;
10605;SDS011;5350;42.698;23.148;2022-12-18T12:06:10;15.07;;;9.90;;
10605;SDS011;5350;42.698;23.148;2022-12-18T12:08:48;14.30;;;7.93;;
10605;SDS011;5350;42.698;23.148;2022-12-18T12:11:29;12.67;;;7.50;;
10605;SDS011;5350;42.698;23.148;2022-12-18T12:14:12;16.80;;;9.73;;
10605;SDS011;5350;42.698;23.148;2022-12-18T12:16:48;14.77;;;8.90;;
10605;SDS011;5350;42.698;23.148;2022-12-18T12:19:23;13.37;;;8.53;;
10605;SDS011;5350;42.698;23.148;2022-12-18T12:22:00;17.30;;;10.93;;
10605;SDS011;5350;42.698;23.148;2022-12-18T12:24:36;13.77;;;8.87;;
10605;SDS011;5350;42.698;23.148;2022-12-18T12:27:13;15.80;;;10.60;;
10605;SDS011;5350;42.698;23.148;2022-12-18T12:29:49;13.93;;;9.73;;
10605;SDS011;5350;42.698;23.148;2022-12-18T12:32:31;16.27;;;10.20;;
10605;SDS011;5350;42.698;23.148;2022-12-18T12:35:12;12.70;;;9.10;;
10605;SDS011;5350;42.698;23.148;2022-12-18T12:37:50;14.87;;;9.13;;
10605;SDS011;5350;42.698;23.148;2022-12-18T12:40:24;12.93;;;9.17;;
10605;SDS011;5350;42.698;23.148;2022-12-18T12:42:54;16.40;;;10.87;;
10605;SDS011;5350;42.698;23.148;2022-12-18T12:45:40;14.50;;;10.23;;
10605;SDS011;5350;42.698;23.148;2022-12-18T12:48:13;13.90;;;10.00;;
10605;SDS011;5350;42.698;23.148;2022-12-18T12:50:45;15.40;;;10.63;;
10605;SDS011;5350;42.698;23.148;2022-12-18T12:53:21;14.07;;;9.97;;
10605;SDS011;5350;42.698;23.148;2022-12-18T12:55:52;15.33;;;8.87;;
10605;SDS011;5350;42.698;23.148;2022-12-18T12:58:23;14.77;;;8.67;;
10605;SDS011;5350;42.698;23.148;2022-12-18T13:01:01;11.60;;;8.43;;
10605;SDS011;5350;42.698;23.148;2022-12-18T13:03:43;12.67;;;8.83;;
10605;SDS011;5350;42.698;23.148;2022-12-18T13:06:19;13.60;;;8.23;;
10605;SDS011;5350;42.698;23.148;2022-12-18T13:08:56;15.30;;;9.80;;
10605;SDS011;5350;42.698;23.148;2022-12-18T13:11:31;12.27;;;7.67;;
10605;SDS011;5350;42.698;23.148;2022-12-18T13:14:20;13.70;;;8.60;;
10605;SDS011;5350;42.698;23.148;2022-12-18T13:16:48;12.80;;;8.80;;
10605;SDS011;5350;42.698;23.148;2022-12-18T13:19:22;13.30;;;8.73;;
10605;SDS011;5350;42.698;23.148;2022-12-18T13:21:53;13.90;;;8.77;;
10605;SDS011;5350;42.698;23.148;2022-12-18T13:24:23;15.03;;;9.40;;
10605;SDS011;5350;42.698;23.148;2022-12-18T13:26:52;15.40;;;8.97;;
10605;SDS011;5350;42.698;23.148;2022-12-18T13:29:40;14.00;;;9.13;;
10605;SDS011;5350;42.698;23.148;2022-12-18T13:32:19;13.13;;;9.30;;
10605;SDS011;5350;42.698;23.148;2022-12-18T13:34:48;13.27;;;8.40;;
10605;SDS011;5350;42.698;23.148;2022-12-18T13:37:39;14.10;;;9.10;;
10605;SDS011;5350;42.698;23.148;2022-12-18T13:46:18;14.63;;;10.00;;
10605;SDS011;5350;42.698;23.148;2022-12-18T13:48:49;19.50;;;13.53;;
10605;SDS011;5350;42.698;23.148;2022-12-18T13:51:20;15.57;;;10.60;;
10605;SDS011;5350;42.698;23.148;2022-12-18T13:53:48;13.53;;;9.63;;
10605;SDS011;5350;42.698;23.148;2022-12-18T13:56:21;14.23;;;9.07;;
10605;SDS011;5350;42.698;23.148;2022-12-18T13:59:06;12.43;;;8.77;;
10605;SDS011;5350;42.698;23.148;2022-12-18T14:01:41;17.43;;;12.40;;
10605;SDS011;5350;42.698;23.148;2022-12-18T14:04:09;13.10;;;8.77;;
10605;SDS011;5350;42.698;23.148;2022-12-18T14:06:38;15.13;;;9.70;;
10605;SDS011;5350;42.698;23.148;2022-12-18T14:09:20;14.83;;;9.40;;
10605;SDS011;5350;42.698;23.148;2022-12-18T14:11:51;11.83;;;8.00;;
10605;SDS011;5350;42.698;23.148;2022-12-18T14:14:41;12.63;;;8.03;;
10605;SDS011;5350;42.698;23.148;2022-12-18T14:17:10;11.00;;;7.80;;
10605;SDS011;5350;42.698;23.148;2022-12-18T14:19:40;13.10;;;8.80;;
10605;SDS011;5350;42.698;23.148;2022-12-18T14:22:12;11.57;;;7.57;;
10605;SDS011;5350;42.698;23.148;2022-12-18T14:24:43;12.47;;;7.30;;
10605;SDS011;5350;42.698;23.148;2022-12-18T14:27:19;12.70;;;8.00;;
10605;SDS011;5350;42.698;23.148;2022-12-18T14:29:48;10.40;;;7.53;;
10605;SDS011;5350;42.698;23.148;2022-12-18T14:32:15;15.40;;;12.83;;
10605;SDS011;5350;42.698;23.148;2022-12-18T14:34:44;12.47;;;7.67;;
10605;SDS011;5350;42.698;23.148;2022-12-18T14:37:12;10.60;;;7.47;;
10605;SDS011;5350;42.698;23.148;2022-12-18T14:39:40;9.00;;;7.00;;
10605;SDS011;5350;42.698;23.148;2022-12-18T14:42:20;11.30;;;7.37;;
10605;SDS011;5350;42.698;23.148;2022-12-18T14:44:47;12.17;;;7.40;;
10605;SDS011;5350;42.698;23.148;2022-12-18T14:47:14;11.50;;;7.53;;
10605;SDS011;5350;42.698;23.148;2022-12-18T14:49:42;11.50;;;7.60;;
10605;SDS011;5350;42.698;23.148;2022-12-18T14:52:17;10.97;;;7.47;;
10605;SDS011;5350;42.698;23.148;2022-12-18T14:54:49;12.87;;;7.97;;
10605;SDS011;5350;42.698;23.148;2022-12-18T14:57:20;12.77;;;8.13;;
10605;SDS011;5350;42.698;23.148;2022-12-18T14:59:49;12.67;;;8.20;;
10605;SDS011;5350;42.698;23.148;2022-12-18T15:02:18;12.33;;;8.50;;
10605;SDS011;5350;42.698;23.148;2022-12-18T15:04:48;12.70;;;9.40;;
10605;SDS011;5350;42.698;23.148;2022-12-18T15:07:27;12.93;;;8.60;;